createdAt,value
2018-11-14T00:00:46.311Z,12.68
2018-11-14T00:03:13.859Z,13.60
2018-11-14T00:05:41.307Z,14.05
2018-11-14T00:08:08.868Z,15.35
2018-11-14T00:10:36.463Z,13.72
2018-11-14T00:13:03.766Z,15.20
2018-11-14T00:15:31.274Z,14.47
2018-11-14T00:17:58.539Z,14.60
2018-11-14T00:20:25.828Z,14.87
2018-11-14T00:22:53.370Z,15.23
2018-11-14T00:25:20.684Z,14.98
2018-11-14T00:27:48.002Z,14.45
2018-11-14T00:30:19.441Z,15.05
2018-11-14T00:32:46.650Z,14.50
2018-11-14T00:35:14.375Z,15.08
2018-11-14T00:37:42.341Z,15.30
2018-11-14T00:40:12.548Z,14.93
2018-11-14T00:42:40.203Z,14.80
2018-11-14T00:45:08.640Z,13.90
2018-11-14T00:47:37.237Z,13.95
2018-11-14T00:50:05.624Z,15.63
2018-11-14T00:52:33.185Z,14.60
2018-11-14T00:55:00.501Z,14.58
2018-11-14T00:57:27.819Z,13.68
2018-11-14T00:59:55.202Z,15.28
2018-11-14T01:02:22.487Z,15.58
2018-11-14T01:04:49.838Z,14.75
2018-11-14T01:07:17.133Z,15.10
2018-11-14T01:09:44.463Z,14.85
2018-11-14T01:12:12.284Z,14.80
2018-11-14T01:14:39.647Z,15.98
2018-11-14T01:17:07.193Z,15.18
2018-11-14T01:19:34.706Z,15.80
2018-11-14T01:22:02.319Z,14.87
2018-11-14T01:24:29.675Z,15.43
2018-11-14T01:26:57.304Z,14.70
2018-11-14T01:29:24.636Z,15.93
2018-11-14T01:31:52.070Z,14.95
2018-11-14T01:34:19.365Z,17.80
2018-11-14T01:36:47.406Z,17.17
2018-11-14T01:39:14.748Z,16.55
2018-11-14T01:41:42.280Z,17.73
2018-11-14T01:44:09.599Z,17.80
2018-11-14T01:46:37.775Z,19.12
2018-11-14T01:49:05.494Z,18.98
2018-11-14T01:51:32.870Z,18.95
2018-11-14T01:54:00.240Z,20.15
2018-11-14T01:56:27.656Z,20.50
2018-11-14T01:58:55.643Z,21.73
2018-11-14T02:01:23.179Z,23.67
2018-11-14T02:03:50.691Z,21.75
2018-11-14T02:06:18.027Z,20.75
2018-11-14T02:08:45.590Z,23.07
2018-11-14T02:11:12.938Z,22.45
2018-11-14T02:13:40.463Z,23.20
2018-11-14T02:16:07.929Z,22.65
2018-11-14T02:18:35.901Z,23.90
2018-11-14T02:21:03.164Z,22.40
2018-11-14T02:23:30.447Z,25.15
2018-11-14T02:25:57.744Z,25.27
2018-11-14T02:28:25.278Z,24.82
2018-11-14T02:30:52.843Z,25.02
2018-11-14T02:33:20.394Z,23.60
2018-11-14T02:35:47.708Z,24.05
2018-11-14T02:38:15.028Z,26.62
2018-11-14T02:40:42.586Z,25.17
2018-11-14T02:43:10.142Z,24.20
2018-11-14T02:45:37.465Z,25.27
2018-11-14T02:48:04.828Z,24.70
2018-11-14T02:50:32.176Z,25.48
2018-11-14T02:52:59.583Z,24.67
2018-11-14T02:55:26.886Z,27.75
2018-11-14T02:57:54.274Z,25.25
2018-11-14T03:00:22.441Z,24.70
2018-11-14T03:02:50.012Z,24.98
2018-11-14T03:05:17.748Z,25.27
2018-11-14T03:07:45.359Z,26.02
2018-11-14T03:10:13.700Z,25.50
2018-11-14T03:12:41.200Z,24.92
2018-11-14T03:15:09.535Z,24.50
2018-11-14T03:17:37.743Z,22.80
2018-11-14T03:20:06.276Z,26.60
2018-11-14T03:22:33.850Z,27.10
2018-11-14T03:25:01.145Z,26.00
2018-11-14T03:27:28.508Z,24.63
2018-11-14T03:29:55.813Z,25.52
2018-11-14T03:32:23.355Z,24.60
2018-11-14T03:34:50.635Z,24.90
2018-11-14T03:37:18.224Z,26.35
2018-11-14T03:39:45.770Z,26.17
2018-11-14T03:42:13.067Z,26.07
2018-11-14T03:44:40.584Z,26.12
2018-11-14T03:47:08.107Z,24.95
2018-11-14T03:49:35.851Z,29.05
2018-11-14T03:52:03.179Z,26.00
2018-11-14T03:54:30.479Z,26.02
2018-11-14T03:56:57.842Z,27.30
2018-11-14T03:59:25.288Z,27.02
2018-11-14T04:01:52.815Z,24.20
2018-11-14T04:04:20.209Z,28.67
2018-11-14T04:06:47.964Z,27.58
2018-11-14T04:09:15.630Z,26.25
2018-11-14T04:11:42.883Z,25.97
2018-11-14T04:14:10.405Z,26.85
2018-11-14T04:16:37.718Z,26.37
2018-11-14T04:19:05.773Z,26.68
2018-11-14T04:21:33.315Z,27.95
2018-11-14T04:24:00.612Z,26.60
2018-11-14T04:26:27.922Z,28.95
2018-11-14T04:28:55.204Z,27.48
2018-11-14T04:31:22.807Z,29.50
2018-11-14T04:33:50.150Z,26.80
2018-11-14T04:36:17.517Z,28.62
2018-11-14T04:38:44.827Z,28.90
2018-11-14T04:41:12.152Z,27.00
2018-11-14T04:43:39.701Z,28.02
2018-11-14T04:46:07.192Z,27.95
2018-11-14T04:48:34.545Z,29.05
2018-11-14T04:51:01.925Z,27.00
2018-11-14T04:53:29.256Z,28.40
2018-11-14T04:55:56.594Z,27.70
2018-11-14T04:58:23.966Z,27.00
2018-11-14T05:00:51.615Z,28.47
2018-11-14T05:03:19.047Z,28.05
2018-11-14T05:05:46.395Z,27.05
2018-11-14T05:08:13.993Z,27.32
2018-11-14T05:10:41.779Z,27.77
2018-11-14T05:13:09.203Z,27.45
2018-11-14T05:15:36.798Z,35.98
2018-11-14T05:18:04.097Z,27.35
2018-11-14T05:20:31.649Z,28.23
2018-11-14T05:22:59.191Z,32.88
2018-11-14T05:25:26.736Z,28.60
2018-11-14T05:27:54.139Z,26.25
2018-11-14T05:30:23.057Z,26.70
2018-11-14T05:32:50.928Z,26.42
2018-11-14T05:35:18.312Z,25.25
2018-11-14T05:37:46.019Z,24.72
2018-11-14T05:40:15.217Z,26.75
2018-11-14T05:42:43.094Z,27.52
2018-11-14T05:45:12.669Z,25.32
2018-11-14T05:47:40.451Z,24.07
2018-11-14T05:50:09.013Z,25.50
2018-11-14T05:52:36.367Z,24.85
2018-11-14T05:55:03.805Z,26.60
2018-11-14T05:57:31.071Z,24.18
2018-11-14T05:59:58.640Z,23.20
2018-11-14T06:02:26.088Z,23.83
2018-11-14T06:04:53.648Z,28.05
2018-11-14T06:07:21.061Z,27.05
2018-11-14T06:09:48.397Z,28.05
2018-11-14T06:12:15.716Z,32.28
2018-11-14T06:14:43.080Z,30.35
2018-11-14T06:17:10.391Z,27.50
2018-11-14T06:19:37.704Z,29.15
2018-11-14T06:22:05.321Z,26.37
2018-11-14T06:24:32.687Z,25.68
2018-11-14T06:27:00.139Z,23.87
2018-11-14T06:29:27.508Z,21.93
2018-11-14T06:31:55.056Z,23.18
2018-11-14T06:34:23.055Z,24.60
2018-11-14T06:36:50.895Z,23.98
2018-11-14T06:39:18.505Z,24.70
2018-11-14T06:41:45.994Z,26.23
2018-11-14T06:44:13.521Z,24.75
2018-11-14T06:46:40.862Z,23.40
2018-11-14T06:49:08.516Z,23.07
2018-11-14T06:51:35.853Z,23.35
2018-11-14T06:54:03.762Z,24.50
2018-11-14T06:56:31.172Z,23.73
2018-11-14T06:58:58.685Z,23.02
2018-11-14T07:01:25.940Z,22.77
2018-11-14T07:03:53.548Z,22.70
2018-11-14T07:06:20.888Z,22.65
2018-11-14T07:08:48.467Z,21.12
2018-11-14T07:11:16.207Z,22.37
2018-11-14T07:13:43.835Z,23.22
2018-11-14T07:16:11.399Z,23.47
2018-11-14T07:18:38.777Z,24.63
2018-11-14T07:21:06.445Z,27.13
2018-11-14T07:23:33.785Z,24.65
2018-11-14T07:26:01.125Z,20.52
2018-11-14T07:28:28.595Z,22.07
2018-11-14T07:30:56.459Z,21.35
2018-11-14T07:33:23.747Z,22.58
2018-11-14T07:35:51.303Z,22.10
2018-11-14T07:38:40.742Z,25.27
2018-11-14T07:41:09.570Z,22.90
2018-11-14T07:43:37.873Z,22.05
2018-11-14T07:46:05.686Z,24.25
2018-11-14T07:48:33.334Z,21.97
2018-11-14T07:51:00.689Z,20.75
2018-11-14T07:53:28.161Z,21.10
2018-11-14T07:55:56.255Z,22.27
2018-11-14T07:58:23.824Z,20.35
2018-11-14T08:00:51.338Z,21.77
2018-11-14T08:03:18.623Z,19.50
2018-11-14T08:05:46.295Z,19.17
2018-11-14T08:08:13.626Z,18.60
2018-11-14T08:10:41.138Z,18.02
2018-11-14T08:13:08.739Z,17.42
2018-11-14T08:15:36.077Z,17.25
2018-11-14T08:18:03.955Z,17.90
2018-11-14T08:20:31.539Z,15.68
2018-11-14T08:22:58.850Z,16.15
2018-11-14T08:25:26.179Z,15.30
2018-11-14T08:27:53.831Z,15.13
2018-11-14T08:30:21.411Z,13.07
2018-11-14T08:32:49.016Z,14.53
2018-11-14T08:35:16.333Z,13.50
2018-11-14T08:37:43.690Z,12.77
2018-11-14T08:40:11.079Z,13.10
2018-11-14T08:42:38.776Z,13.90
2018-11-14T08:45:07.069Z,12.87
2018-11-14T08:47:34.372Z,12.47
2018-11-14T08:50:01.687Z,12.40
2018-11-14T08:52:29.046Z,12.40
2018-11-14T08:54:56.375Z,11.77
2018-11-14T08:57:24.024Z,10.90
2018-11-14T08:59:51.348Z,9.20
2018-11-14T09:02:18.900Z,10.20
2018-11-14T09:04:46.287Z,9.10
2018-11-14T09:07:13.660Z,9.93
2018-11-14T09:09:40.999Z,8.67
2018-11-14T09:12:08.892Z,8.50
2018-11-14T09:14:36.912Z,8.80
2018-11-14T09:17:04.677Z,8.07
2018-11-14T09:19:32.014Z,7.20
2018-11-14T09:21:59.816Z,6.90
2018-11-14T09:24:27.429Z,7.47
2018-11-14T09:26:54.767Z,7.40
2018-11-14T09:29:22.152Z,6.80
2018-11-14T09:31:49.714Z,6.97
2018-11-14T09:34:17.008Z,7.40
2018-11-14T09:36:44.598Z,6.97
2018-11-14T09:39:13.104Z,5.63
2018-11-14T09:41:40.726Z,6.20
2018-11-14T09:44:08.362Z,5.77
2018-11-14T09:46:36.091Z,6.60
2018-11-14T09:49:04.001Z,5.60
2018-11-14T09:51:31.619Z,5.50
2018-11-14T09:53:58.969Z,5.63
2018-11-14T09:56:26.517Z,5.87
2018-11-14T09:58:54.049Z,6.37
2018-11-14T10:01:21.758Z,5.40
2018-11-14T10:03:49.305Z,5.63
2018-11-14T10:06:16.587Z,6.13
2018-11-14T10:08:44.127Z,5.90
2018-11-14T10:11:11.631Z,5.53
2018-11-14T10:13:38.988Z,5.83
2018-11-14T10:16:06.558Z,5.17
2018-11-14T10:18:34.369Z,4.97
2018-11-14T10:21:01.910Z,5.03
2018-11-14T10:23:29.473Z,5.20
2018-11-14T10:25:56.793Z,5.33
2018-11-14T10:28:24.124Z,4.40
2018-11-14T10:30:51.462Z,4.67
2018-11-14T10:33:18.802Z,6.47
2018-11-14T10:35:46.125Z,4.70
2018-11-14T10:38:13.410Z,5.50
2018-11-14T10:40:41.148Z,5.50
2018-11-14T10:43:08.722Z,5.20
2018-11-14T10:45:36.547Z,4.57
2018-11-14T10:48:04.273Z,5.30
2018-11-14T10:50:31.972Z,5.10
2018-11-14T10:52:59.297Z,4.50
2018-11-14T10:55:26.959Z,4.70
2018-11-14T10:57:54.308Z,4.53
2018-11-14T11:00:28.529Z,4.30
2018-11-14T11:03:01.657Z,4.87
2018-11-14T11:07:36.515Z,5.10
2018-11-14T11:10:07.418Z,4.50
2018-11-14T11:12:40.266Z,4.33
2018-11-14T11:15:13.033Z,4.87
2018-11-14T11:17:46.534Z,5.13
2018-11-14T11:20:14.077Z,4.67
2018-11-14T11:22:41.603Z,5.10
2018-11-14T11:25:09.219Z,5.03
2018-11-14T11:27:36.502Z,5.00
2018-11-14T11:30:03.864Z,4.30
2018-11-14T11:32:31.352Z,4.23
2018-11-14T11:34:58.663Z,5.10
2018-11-14T11:37:26.374Z,4.17
2018-11-14T11:39:54.026Z,4.27
2018-11-14T11:42:21.453Z,4.40
2018-11-14T11:44:48.740Z,4.43
2018-11-14T11:47:16.090Z,4.67
2018-11-14T11:49:43.607Z,4.40
2018-11-14T11:52:11.208Z,4.73
2018-11-14T11:54:38.524Z,4.10
2018-11-14T11:57:06.092Z,4.97
2018-11-14T11:59:33.461Z,3.85
2018-11-14T12:02:00.747Z,3.90
2018-11-14T12:04:28.546Z,4.50
2018-11-14T12:06:55.839Z,4.20
2018-11-14T12:09:23.198Z,5.50
2018-11-14T12:11:51.326Z,3.70
2018-11-14T12:14:18.708Z,3.83
2018-11-14T12:16:46.335Z,4.55
2018-11-14T12:19:13.944Z,3.87
2018-11-14T12:21:41.158Z,4.05
2018-11-14T12:24:08.551Z,4.78
2018-11-14T12:26:35.863Z,3.58
2018-11-14T12:29:03.147Z,3.47
2018-11-14T12:31:30.500Z,3.70
2018-11-14T12:33:58.076Z,3.50
2018-11-14T12:36:25.636Z,3.85
2018-11-14T12:38:53.076Z,3.45
2018-11-14T12:41:20.375Z,3.62
2018-11-14T12:43:47.719Z,4.20
2018-11-14T12:46:15.076Z,3.58
2018-11-14T12:48:42.414Z,3.37
2018-11-14T12:51:09.957Z,3.75
2018-11-14T12:53:37.498Z,3.55
2018-11-14T12:56:05.069Z,3.40
2018-11-14T12:58:33.308Z,3.40
2018-11-14T13:01:00.906Z,3.60
2018-11-14T13:03:28.216Z,3.02
2018-11-14T13:05:55.576Z,3.70
2018-11-14T13:08:23.105Z,3.27
2018-11-14T13:10:51.138Z,3.15
2018-11-14T13:13:18.437Z,3.70
2018-11-14T13:15:46.093Z,3.60
2018-11-14T13:18:13.573Z,3.65
2018-11-14T13:20:40.858Z,3.77
2018-11-14T13:23:08.159Z,3.83
2018-11-14T13:25:35.540Z,3.15
2018-11-14T13:28:03.297Z,3.55
2018-11-14T13:30:30.649Z,5.05
2018-11-14T13:32:57.974Z,4.22
2018-11-14T13:35:25.751Z,4.08
2018-11-14T13:37:53.093Z,4.28
2018-11-14T13:40:20.681Z,4.35
2018-11-14T13:42:47.979Z,4.40
2018-11-14T13:45:17.268Z,4.37
2018-11-14T13:47:44.700Z,4.12
2018-11-14T13:50:13.678Z,4.75
2018-11-14T13:52:40.969Z,5.30
2018-11-14T13:55:09.319Z,4.17
2018-11-14T13:57:36.665Z,4.40
2018-11-14T14:00:04.030Z,4.35
2018-11-14T14:02:31.346Z,4.58
2018-11-14T14:04:58.988Z,4.20
2018-11-14T14:07:26.324Z,4.35
2018-11-14T14:09:53.656Z,4.03
2018-11-14T14:12:20.967Z,4.70
2018-11-14T14:14:48.547Z,4.00
2018-11-14T14:17:15.876Z,4.33
2018-11-14T14:19:43.195Z,4.28
2018-11-14T14:22:10.553Z,5.03
2018-11-14T14:24:38.316Z,3.83
2018-11-14T14:27:05.713Z,3.60
2018-11-14T14:29:33.057Z,3.70
2018-11-14T14:32:00.644Z,4.67
2018-11-14T14:34:27.932Z,3.83
2018-11-14T14:36:55.285Z,4.20
2018-11-14T14:39:23.082Z,3.60
2018-11-14T14:41:50.499Z,4.20
2018-11-14T14:44:17.832Z,4.03
2018-11-14T14:46:45.378Z,4.65
2018-11-14T14:49:13.077Z,4.05
2018-11-14T14:51:40.618Z,3.90
2018-11-14T14:54:07.941Z,3.83
2018-11-14T14:56:35.585Z,4.33
2018-11-14T14:59:03.046Z,4.15
2018-11-14T15:01:30.344Z,4.37
2018-11-14T15:03:58.106Z,4.30
2018-11-14T15:06:25.440Z,4.28
2018-11-14T15:08:52.898Z,4.00
2018-11-14T15:11:20.509Z,3.75
2018-11-14T15:13:48.048Z,4.10
2018-11-14T15:16:16.183Z,3.98
2018-11-14T15:18:43.784Z,4.83
2018-11-14T15:21:12.173Z,4.40
2018-11-14T15:23:39.702Z,4.10
2018-11-14T15:26:07.016Z,4.45
2018-11-14T15:28:35.039Z,4.25
2018-11-14T15:31:02.767Z,4.50
2018-11-14T15:33:30.612Z,5.12
2018-11-14T15:35:58.224Z,5.78
2018-11-14T15:38:25.523Z,4.58
2018-11-14T15:40:53.260Z,4.70
2018-11-14T15:43:20.535Z,4.65
2018-11-14T15:45:47.850Z,4.95
2018-11-14T15:48:15.304Z,4.60
2018-11-14T15:50:42.839Z,4.72
2018-11-14T15:53:10.808Z,5.60
2018-11-14T15:55:38.143Z,5.50
2018-11-14T15:58:05.513Z,5.12
2018-11-14T16:00:34.336Z,4.12
2018-11-14T16:03:02.059Z,4.40
2018-11-14T16:05:30.693Z,4.97
2018-11-14T16:08:00.141Z,4.60
2018-11-14T16:10:28.656Z,5.45
2018-11-14T16:12:56.013Z,4.40
2018-11-14T16:15:26.416Z,4.40
2018-11-14T16:17:53.792Z,4.97
2018-11-14T16:20:22.477Z,5.20
2018-11-14T16:22:49.885Z,5.00
2018-11-14T16:25:18.336Z,5.37
2018-11-14T16:27:51.128Z,5.20
2018-11-14T16:30:23.916Z,5.72
2018-11-14T16:32:52.835Z,5.00
2018-11-14T16:35:21.519Z,5.10
2018-11-14T16:37:49.006Z,5.00
2018-11-14T16:40:19.464Z,5.33
2018-11-14T16:42:47.136Z,5.42
2018-11-14T16:45:15.012Z,4.97
2018-11-14T16:47:42.463Z,4.65
2018-11-14T16:50:10.966Z,4.70
2018-11-14T16:52:38.452Z,4.87
2018-11-14T16:55:06.982Z,5.80
2018-11-14T16:57:34.343Z,5.00
2018-11-14T17:00:03.848Z,5.62
2018-11-14T17:02:31.912Z,5.10
2018-11-14T17:04:59.429Z,5.53
2018-11-14T17:07:27.159Z,4.50
2018-11-14T17:09:54.464Z,4.70
2018-11-14T17:12:22.765Z,5.53
2018-11-14T17:14:50.753Z,5.60
2018-11-14T17:17:18.167Z,5.12
2018-11-14T17:19:47.864Z,5.42
2018-11-14T17:22:15.170Z,6.55
2018-11-14T17:24:43.815Z,6.50
2018-11-14T17:27:11.560Z,5.33
2018-11-14T17:29:39.195Z,6.70
2018-11-14T17:32:06.586Z,6.28
2018-11-14T17:34:34.316Z,6.42
2018-11-14T17:37:02.292Z,6.30
2018-11-14T17:39:32.879Z,6.67
2018-11-14T17:42:02.605Z,7.05
2018-11-14T17:44:31.057Z,6.55
2018-11-14T17:47:00.944Z,7.03
2018-11-14T17:49:28.446Z,6.85
2018-11-14T17:51:57.307Z,7.22
2018-11-14T17:54:25.269Z,7.03
2018-11-14T17:56:53.278Z,7.00
2018-11-14T17:59:21.424Z,7.60
2018-11-14T18:01:49.766Z,6.65
2018-11-14T18:04:17.055Z,7.40
2018-11-14T18:06:44.434Z,6.60
2018-11-14T18:09:13.423Z,7.78
2018-11-14T18:11:41.154Z,7.17
2018-11-14T18:14:09.044Z,7.70
2018-11-14T18:16:36.981Z,8.10
2018-11-14T18:19:04.488Z,6.65
2018-11-14T18:21:31.954Z,7.67
2018-11-14T18:23:59.527Z,7.10
2018-11-14T18:26:26.998Z,6.92
2018-11-14T18:28:54.855Z,6.70
2018-11-14T18:31:22.244Z,7.37
2018-11-14T18:33:49.931Z,6.72
2018-11-14T18:36:17.427Z,10.80
2018-11-14T18:38:44.769Z,7.80
2018-11-14T18:41:13.272Z,7.90
2018-11-14T18:43:41.295Z,6.72
2018-11-14T18:46:09.168Z,11.95
2018-11-14T18:48:36.559Z,9.60
2018-11-14T18:51:04.831Z,8.30
2018-11-14T18:53:32.577Z,9.90
2018-11-14T18:56:02.007Z,9.45
2018-11-14T18:58:30.767Z,8.45
2018-11-14T19:00:58.402Z,8.33
2018-11-14T19:03:26.077Z,8.98
2018-11-14T19:05:53.959Z,9.80
2018-11-14T19:08:21.978Z,8.33
2018-11-14T19:10:49.599Z,9.35
2018-11-14T19:13:17.430Z,10.25
2018-11-14T19:15:44.832Z,10.18
2018-11-14T19:18:12.969Z,10.40
2018-11-14T19:20:41.004Z,10.50
2018-11-14T19:23:08.693Z,12.65
2018-11-14T19:25:40.878Z,12.20
2018-11-14T19:28:11.957Z,14.98
2018-11-14T19:30:42.266Z,14.40
2018-11-14T19:33:11.467Z,12.70
2018-11-14T19:35:41.898Z,15.60
2018-11-14T19:38:11.301Z,14.53
2018-11-14T19:40:38.835Z,14.25
2018-11-14T19:43:10.172Z,14.55
2018-11-14T19:45:38.668Z,13.65
2018-11-14T19:48:06.162Z,16.00
2018-11-14T19:50:33.934Z,14.95
2018-11-14T19:53:02.849Z,17.70
2018-11-14T19:55:36.896Z,14.58
2018-11-14T19:58:05.484Z,16.60
2018-11-14T20:00:36.041Z,14.90
2018-11-14T20:03:03.645Z,14.70
2018-11-14T20:05:31.119Z,16.45
2018-11-14T20:07:58.952Z,16.80
2018-11-14T20:10:28.816Z,16.90
2018-11-14T20:12:56.666Z,16.97
2018-11-14T20:15:25.595Z,16.80
2018-11-14T20:17:53.315Z,17.73
2018-11-14T20:20:27.504Z,15.20
2018-11-14T20:22:55.111Z,15.20
2018-11-14T20:25:23.722Z,14.70
2018-11-14T20:27:51.294Z,16.07
2018-11-14T20:30:21.108Z,15.55
2018-11-14T20:32:49.434Z,16.02
2018-11-14T20:35:17.971Z,16.90
2018-11-14T20:37:45.610Z,17.25
2018-11-14T20:40:18.248Z,16.97
2018-11-14T20:42:46.223Z,16.70
2018-11-14T20:45:15.340Z,16.90
2018-11-14T20:47:42.875Z,18.77
2018-11-14T20:50:11.793Z,14.60
2018-11-14T20:52:39.228Z,15.30
2018-11-14T20:55:08.093Z,15.10
2018-11-14T20:57:35.523Z,17.48
2018-11-14T21:00:02.869Z,14.85
2018-11-14T21:02:30.337Z,15.35
2018-11-14T21:04:57.700Z,17.65
2018-11-14T21:07:25.085Z,17.20
2018-11-14T21:09:52.569Z,15.95
2018-11-14T21:12:20.151Z,16.27
2018-11-14T21:14:47.531Z,17.02
2018-11-14T21:17:15.108Z,16.15
2018-11-14T21:19:42.922Z,18.00
2018-11-14T21:22:12.005Z,17.07
2018-11-14T21:24:39.426Z,17.02
2018-11-14T21:27:07.907Z,16.77
2018-11-14T21:29:36.270Z,18.12
2018-11-14T21:32:03.656Z,17.15
2018-11-14T21:34:30.983Z,17.45
2018-11-14T21:36:59.551Z,17.77
2018-11-14T21:39:26.894Z,16.00
2018-11-14T21:41:54.482Z,17.25
2018-11-14T21:44:21.808Z,17.92
2018-11-14T21:46:49.130Z,18.52
2018-11-14T21:49:22.006Z,18.45
2018-11-14T21:51:49.537Z,17.67
2018-11-14T21:54:16.948Z,17.82
2018-11-14T21:56:44.312Z,17.15
2018-11-14T21:59:11.869Z,17.07
2018-11-14T22:01:39.655Z,17.50
2018-11-14T22:04:07.061Z,17.70
2018-11-14T22:06:34.634Z,17.95
2018-11-14T22:09:02.017Z,17.57
2018-11-14T22:11:29.595Z,17.50
2018-11-14T22:13:57.244Z,17.32
2018-11-14T22:16:24.955Z,16.82
2018-11-14T22:18:52.670Z,17.25
2018-11-14T22:21:20.020Z,17.82
2018-11-14T22:23:47.336Z,16.73
2018-11-14T22:26:14.997Z,17.10
2018-11-14T22:28:42.287Z,16.25
2018-11-14T22:31:09.819Z,17.27
2018-11-14T22:33:37.579Z,16.05
2018-11-14T22:36:04.928Z,15.43
2018-11-14T22:38:32.489Z,17.62
2018-11-14T22:41:00.017Z,15.38
2018-11-14T22:43:27.819Z,16.02
2018-11-14T22:45:55.380Z,17.65
2018-11-14T22:48:22.825Z,15.38
2018-11-14T22:50:50.358Z,16.57
2018-11-14T22:53:17.912Z,17.57
2018-11-14T22:55:45.298Z,17.60
2018-11-14T22:58:12.906Z,18.35
2018-11-14T23:00:44.757Z,15.38
2018-11-14T23:03:12.280Z,17.27
2018-11-14T23:05:39.633Z,17.60
2018-11-14T23:08:06.951Z,15.15
2018-11-14T23:10:34.280Z,15.05
2018-11-14T23:13:01.842Z,16.27
2018-11-14T23:15:29.204Z,16.25
2018-11-14T23:17:57.030Z,16.95
2018-11-14T23:20:24.703Z,15.88
2018-11-14T23:22:52.765Z,16.17
2018-11-14T23:25:20.609Z,17.23
2018-11-14T23:27:49.955Z,16.12
2018-11-14T23:30:18.303Z,16.50
2018-11-14T23:32:46.995Z,15.72
2018-11-14T23:35:15.351Z,16.27
2018-11-14T23:37:43.133Z,15.30
2018-11-14T23:40:10.603Z,18.30
2018-11-14T23:42:38.251Z,16.75
2018-11-14T23:45:07.064Z,16.97
2018-11-14T23:47:34.384Z,17.15
2018-11-14T23:50:01.959Z,17.35
2018-11-14T23:52:29.503Z,17.15
2018-11-14T23:54:56.843Z,16.50
2018-11-14T23:57:24.651Z,15.60
2018-11-14T23:59:52.312Z,17.12
